Time;durP1;ratioP1;P1;durP2;ratioP2;P2;SDS_P1;SDS_P2;PMS_P1;PMS_P2;Temp;Humidity;BMP_temperature;BMP_pressure;BME280_temperature;BME280_humidity;BME280_pressure;Samples;Min_cycle;Max_cycle;Signal;HPM_P1;HPM_P2
2023/05/15 02:01:28;;;;;;;5.28;2.85;;;;;;;;;;4571634;27;20118;-74
2023/05/15 02:03:56;;;;;;;10.27;4.15;;;;;;;;;;4290640;33;20077;-77
2023/05/15 02:06:22;;;;;;;7.72;3.72;;;;;;;;;;4295011;33;20446;-75
2023/05/15 02:08:50;;;;;;;4.80;3.37;;;;;;;;;;4278257;33;20055;-75
2023/05/15 02:11:16;;;;;;;6.60;3.45;;;;;;;;;;4277171;33;20041;-74
2023/05/15 02:13:46;;;;;;;4.60;3.62;;;;;;;;;;4277285;33;20050;-75
2023/05/15 02:16:11;;;;;;;4.30;3.35;;;;;;;;;;4276775;33;20033;-75
2023/05/15 02:18:38;;;;;;;13.13;3.60;;;;;;;;;;4249723;33;20086;-75
2023/05/15 02:21:04;;;;;;;11.63;3.40;;;;;;;;;;4239589;33;20060;-75
2023/05/15 02:23:30;;;;;;;7.07;4.15;;;;;;;;;;4236772;33;20050;-75
2023/05/15 02:26:03;;;;;;;5.85;3.78;;;;;;;;;;4237254;33;20093;-76
2023/05/15 02:28:32;;;;;;;3.53;3.17;;;;;;;;;;4234022;33;20483;-76
2023/05/15 02:31:01;;;;;;;8.15;3.08;;;;;;;;;;4236233;33;20433;-76
2023/05/15 02:33:27;;;;;;;7.30;3.42;;;;;;;;;;4231045;33;20097;-77
2023/05/15 02:36:07;;;;;;;4.30;3.67;;;;;;;;;;4249927;33;20056;-76
2023/05/15 02:38:45;;;;;;;6.43;3.50;;;;;;;;;;4249779;33;20080;-76
2023/05/15 02:41:12;;;;;;;3.10;2.80;;;;;;;;;;4278204;33;20063;-75
2023/05/15 02:43:38;;;;;;;4.55;3.10;;;;;;;;;;4277956;33;20061;-76
2023/05/15 02:46:06;;;;;;;8.55;2.75;;;;;;;;;;4276294;33;20112;-77
2023/05/15 02:48:34;;;;;;;5.55;3.62;;;;;;;;;;4279240;33;20080;-77
2023/05/15 02:51:00;;;;;;;8.07;2.90;;;;;;;;;;4295169;33;20423;-76
2023/05/15 02:53:27;;;;;;;4.50;2.90;;;;;;;;;;4295348;33;20067;-76
2023/05/15 02:55:53;;;;;;;7.53;2.80;;;;;;;;;;4294914;33;20049;-77
2023/05/15 02:58:19;;;;;;;4.03;3.15;;;;;;;;;;4293849;33;20057;-76
2023/05/15 03:00:45;;;;;;;5.57;3.15;;;;;;;;;;4292847;33;20090;-76
2023/05/15 03:03:12;;;;;;;9.82;2.92;;;;;;;;;;4291306;33;20045;-76
2023/05/15 03:05:38;;;;;;;8.13;3.22;;;;;;;;;;4293570;33;20143;-76
2023/05/15 03:08:04;;;;;;;4.80;2.97;;;;;;;;;;4294584;33;20049;-78
2023/05/15 03:10:30;;;;;;;9.85;3.17;;;;;;;;;;4295003;33;20501;-75
2023/05/15 03:12:59;;;;;;;8.00;2.92;;;;;;;;;;4295689;33;20045;-76
2023/05/15 03:15:25;;;;;;;6.10;3.00;;;;;;;;;;4295691;33;20033;-76
2023/05/15 03:17:52;;;;;;;3.72;2.75;;;;;;;;;;4295941;33;20049;-75
2023/05/15 03:20:18;;;;;;;7.68;3.60;;;;;;;;;;4290694;33;20025;-75
2023/05/15 03:22:44;;;;;;;3.90;3.20;;;;;;;;;;4294928;33;20052;-75
2023/05/15 03:25:11;;;;;;;6.22;3.03;;;;;;;;;;4295335;33;20037;-75
2023/05/15 03:27:37;;;;;;;5.82;3.08;;;;;;;;;;4296011;33;20432;-74
2023/05/15 03:30:04;;;;;;;5.12;3.17;;;;;;;;;;4295846;33;20041;-75
2023/05/15 03:32:31;;;;;;;3.37;3.08;;;;;;;;;;4295649;33;20079;-76
2023/05/15 03:34:57;;;;;;;7.47;3.20;;;;;;;;;;4297457;33;20057;-75
2023/05/15 03:37:23;;;;;;;10.55;3.35;;;;;;;;;;4297882;33;20045;-75
2023/05/15 03:39:49;;;;;;;9.75;3.45;;;;;;;;;;4297132;33;20429;-73
2023/05/15 03:42:21;;;;;;;6.55;3.30;;;;;;;;;;4295221;33;20067;-74
2023/05/15 03:44:47;;;;;;;8.43;2.58;;;;;;;;;;4293696;33;20470;-75
2023/05/15 03:47:14;;;;;;;4.18;2.50;;;;;;;;;;4293468;33;20056;-74
2023/05/15 03:49:40;;;;;;;2.60;2.40;;;;;;;;;;4293176;33;20041;-74
2023/05/15 03:52:06;;;;;;;3.58;2.40;;;;;;;;;;4279742;33;20071;-74
2023/05/15 03:54:33;;;;;;;4.28;2.53;;;;;;;;;;4278397;33;20075;-74
2023/05/15 03:57:06;;;;;;;5.00;2.25;;;;;;;;;;4293416;33;20071;-73
2023/05/15 03:59:39;;;;;;;4.50;2.53;;;;;;;;;;4294584;33;20095;-74
2023/05/15 04:02:05;;;;;;;4.47;2.62;;;;;;;;;;4294042;33;20072;-74
2023/05/15 04:04:31;;;;;;;3.83;2.83;;;;;;;;;;4291848;33;20041;-78
2023/05/15 04:06:58;;;;;;;3.05;2.58;;;;;;;;;;4293050;33;20110;-75
2023/05/15 04:09:24;;;;;;;7.75;3.72;;;;;;;;;;4294734;33;20071;-74
2023/05/15 04:11:51;;;;;;;7.90;3.00;;;;;;;;;;4293861;33;20048;-74
2023/05/15 04:14:16;;;;;;;4.55;2.90;;;;;;;;;;4305612;33;20055;-74
2023/05/15 04:16:43;;;;;;;5.12;2.97;;;;;;;;;;4306288;33;20146;-75
2023/05/15 04:19:09;;;;;;;3.08;2.83;;;;;;;;;;4299629;33;20078;-75
2023/05/15 04:21:35;;;;;;;2.87;2.67;;;;;;;;;;4302390;33;20079;-74
2023/05/15 04:24:01;;;;;;;4.45;2.90;;;;;;;;;;4296485;33;20045;-73
2023/05/15 04:26:27;;;;;;;2.78;2.58;;;;;;;;;;4294957;33;20094;-74
2023/05/15 04:28:55;;;;;;;4.70;2.78;;;;;;;;;;4295955;33;20797;-78
2023/05/15 04:31:22;;;;;;;5.75;2.67;;;;;;;;;;4295701;33;20059;-74
2023/05/15 04:33:48;;;;;;;5.05;2.95;;;;;;;;;;4296852;33;20045;-76
2023/05/15 04:36:14;;;;;;;3.20;2.67;;;;;;;;;;4293689;33;20463;-76
2023/05/15 04:38:40;;;;;;;3.62;3.33;;;;;;;;;;4294405;33;20065;-75
2023/05/15 04:41:07;;;;;;;7.93;3.40;;;;;;;;;;4291963;33;20115;-76
2023/05/15 04:43:32;;;;;;;7.78;2.83;;;;;;;;;;4279181;33;20811;-75
2023/05/15 04:45:59;;;;;;;3.30;3.03;;;;;;;;;;4280032;33;20075;-76
2023/05/15 04:48:25;;;;;;;6.32;2.85;;;;;;;;;;4280422;33;20063;-77
2023/05/15 04:50:51;;;;;;;6.20;3.40;;;;;;;;;;4279623;33;20075;-75
2023/05/15 04:53:17;;;;;;;5.20;3.10;;;;;;;;;;4248402;33;20096;-78
2023/05/15 04:55:44;;;;;;;6.32;3.45;;;;;;;;;;4251650;33;20868;-76
2023/05/15 04:58:10;;;;;;;3.35;3.03;;;;;;;;;;4251491;33;20102;-75
2023/05/15 05:00:36;;;;;;;4.10;3.00;;;;;;;;;;4248000;33;20062;-76
2023/05/15 05:03:03;;;;;;;3.22;2.85;;;;;;;;;;4251837;33;20050;-75
2023/05/15 05:05:29;;;;;;;8.70;3.42;;;;;;;;;;4249054;33;20052;-78
2023/05/15 05:07:55;;;;;;;5.35;3.55;;;;;;;;;;4260383;33;20745;-75
2023/05/15 05:10:22;;;;;;;6.57;3.33;;;;;;;;;;4264260;33;20099;-76
2023/05/15 05:12:48;;;;;;;3.37;3.00;;;;;;;;;;4257544;33;20113;-75
2023/05/15 05:15:14;;;;;;;2.97;2.78;;;;;;;;;;4263937;33;20053;-75
2023/05/15 05:17:41;;;;;;;3.33;3.03;;;;;;;;;;4263088;33;20103;-76
2023/05/15 05:20:09;;;;;;;4.60;2.97;;;;;;;;;;4262703;33;20097;-76
2023/05/15 05:22:36;;;;;;;5.03;3.47;;;;;;;;;;4255384;33;20405;-77
2023/05/15 05:25:03;;;;;;;6.35;4.28;;;;;;;;;;4287898;33;20067;-77
2023/05/15 05:27:29;;;;;;;5.03;3.55;;;;;;;;;;4291016;33;20415;-80
2023/05/15 05:29:55;;;;;;;5.90;5.32;;;;;;;;;;4292406;33;20053;-79
2023/05/15 05:32:21;;;;;;;11.93;5.07;;;;;;;;;;4301122;33;20051;-79
2023/05/15 05:34:47;;;;;;;7.25;4.07;;;;;;;;;;4300426;33;20214;-80
2023/05/15 05:37:14;;;;;;;5.53;4.70;;;;;;;;;;4300682;33;20057;-78
2023/05/15 05:39:40;;;;;;;6.37;5.32;;;;;;;;;;4300370;33;20071;-77
2023/05/15 05:42:06;;;;;;;8.45;4.82;;;;;;;;;;4299378;33;20169;-78
2023/05/15 05:44:33;;;;;;;13.82;5.22;;;;;;;;;;4315155;33;20041;-77
2023/05/15 05:46:59;;;;;;;9.98;4.72;;;;;;;;;;4314168;33;20036;-79
2023/05/15 05:49:26;;;;;;;7.40;5.18;;;;;;;;;;4300529;33;20070;-78
2023/05/15 05:51:52;;;;;;;9.85;5.80;;;;;;;;;;4300201;33;20498;-76
2023/05/15 05:54:18;;;;;;;6.55;5.40;;;;;;;;;;4300627;33;20084;-78
2023/05/15 05:56:44;;;;;;;7.72;5.53;;;;;;;;;;4298202;33;20372;-78
2023/05/15 05:59:11;;;;;;;6.60;4.82;;;;;;;;;;4297683;33;20045;-79
2023/05/15 06:01:37;;;;;;;7.85;5.85;;;;;;;;;;4284486;33;20049;-77
2023/05/15 06:04:04;;;;;;;11.48;6.95;;;;;;;;;;4296952;33;20041;-78
2023/05/15 06:06:30;;;;;;;10.45;6.20;;;;;;;;;;4290929;33;20045;-78
2023/05/15 06:08:56;;;;;;;9.90;6.82;;;;;;;;;;4293663;33;20045;-78
2023/05/15 06:11:22;;;;;;;11.45;5.87;;;;;;;;;;4294288;33;20407;-79
2023/05/15 06:13:48;;;;;;;10.13;5.35;;;;;;;;;;4294377;33;20057;-77
2023/05/15 06:16:14;;;;;;;9.02;6.00;;;;;;;;;;4291893;33;20041;-77
2023/05/15 06:18:41;;;;;;;10.07;5.95;;;;;;;;;;4294362;33;20045;-80
2023/05/15 06:21:07;;;;;;;6.62;5.25;;;;;;;;;;4299805;33;20040;-79
2023/05/15 06:23:33;;;;;;;10.43;6.55;;;;;;;;;;4299417;33;20135;-75
2023/05/15 06:26:00;;;;;;;14.23;8.90;;;;;;;;;;4291703;33;20049;-77
2023/05/15 06:28:26;;;;;;;15.98;9.32;;;;;;;;;;4298278;33;21305;-79
2023/05/15 06:30:52;;;;;;;12.90;8.32;;;;;;;;;;4299364;33;20033;-76
2023/05/15 06:33:20;;;;;;;9.50;6.40;;;;;;;;;;4314136;33;20048;-77
2023/05/15 06:35:46;;;;;;;12.82;5.97;;;;;;;;;;4285420;33;20026;-77
2023/05/15 06:38:13;;;;;;;6.22;5.35;;;;;;;;;;4262750;33;20046;-77
2023/05/15 06:40:39;;;;;;;7.37;5.43;;;;;;;;;;4269498;33;20056;-76
2023/05/15 06:43:05;;;;;;;11.32;5.43;;;;;;;;;;4274176;33;20487;-79
2023/05/15 06:45:31;;;;;;;9.68;5.87;;;;;;;;;;4270689;33;20089;-79
2023/05/15 06:47:58;;;;;;;7.65;5.97;;;;;;;;;;4280431;33;20100;-78
2023/05/15 06:50:24;;;;;;;17.60;5.72;;;;;;;;;;4278655;33;20076;-78
2023/05/15 06:52:50;;;;;;;7.15;5.28;;;;;;;;;;4282652;33;20033;-79
2023/05/15 06:55:17;;;;;;;14.43;6.20;;;;;;;;;;4282892;33;20056;-78
2023/05/15 06:57:43;;;;;;;8.35;5.15;;;;;;;;;;4282641;33;20428;-80
2023/05/15 07:00:09;;;;;;;5.90;5.15;;;;;;;;;;4283797;33;20060;-77
2023/05/15 07:02:35;;;;;;;7.85;5.28;;;;;;;;;;4281341;33;20062;-79
2023/05/15 07:05:02;;;;;;;7.32;5.30;;;;;;;;;;4280656;33;20046;-78
2023/05/15 07:07:28;;;;;;;6.65;6.03;;;;;;;;;;4301034;33;20082;-78
2023/05/15 07:09:54;;;;;;;11.77;5.50;;;;;;;;;;4282108;33;20341;-78
2023/05/15 07:12:20;;;;;;;11.00;5.18;;;;;;;;;;4256203;33;20078;-77
2023/05/15 07:14:46;;;;;;;6.15;5.25;;;;;;;;;;4251437;33;20253;-77
2023/05/15 07:17:12;;;;;;;5.90;5.10;;;;;;;;;;4251408;33;20054;-78
2023/05/15 07:19:38;;;;;;;8.18;4.87;;;;;;;;;;4250466;33;20085;-78
2023/05/15 07:22:05;;;;;;;10.30;5.47;;;;;;;;;;4252951;33;20105;-79
2023/05/15 07:24:31;;;;;;;6.62;5.60;;;;;;;;;;4252527;33;20046;-77
2023/05/15 07:26:57;;;;;;;6.78;6.10;;;;;;;;;;4252013;33;20034;-77
2023/05/15 07:29:24;;;;;;;6.97;5.43;;;;;;;;;;4252231;33;20034;-76
2023/05/15 07:31:50;;;;;;;7.10;4.93;;;;;;;;;;4267715;33;20470;-76
2023/05/15 07:34:16;;;;;;;9.02;4.93;;;;;;;;;;4268505;33;20034;-76
2023/05/15 07:36:42;;;;;;;12.15;5.68;;;;;;;;;;4253990;33;20042;-76
2023/05/15 07:39:09;;;;;;;5.75;5.18;;;;;;;;;;4268402;33;20589;-77
2023/05/15 07:41:35;;;;;;;9.32;5.18;;;;;;;;;;4276702;33;20037;-81
2023/05/15 07:44:01;;;;;;;6.72;5.40;;;;;;;;;;4277989;33;20183;-81
2023/05/15 07:46:27;;;;;;;12.25;6.62;;;;;;;;;;4267300;33;20053;-79
2023/05/15 07:48:53;;;;;;;8.35;5.80;;;;;;;;;;4255198;33;20143;-80
2023/05/15 07:51:20;;;;;;;11.70;4.93;;;;;;;;;;4252316;33;20056;-79
2023/05/15 07:53:46;;;;;;;6.12;4.55;;;;;;;;;;4257477;33;20064;-78
2023/05/15 07:56:12;;;;;;;6.25;5.15;;;;;;;;;;4253609;33;20076;-78
2023/05/15 07:58:39;;;;;;;9.15;4.45;;;;;;;;;;4240989;33;20047;-79
2023/05/15 08:01:06;;;;;;;11.35;6.62;;;;;;;;;;4236446;33;20084;-79
2023/05/15 08:03:33;;;;;;;5.78;5.15;;;;;;;;;;4224791;33;20064;-79
2023/05/15 08:06:07;;;;;;;8.18;5.93;;;;;;;;;;4240426;33;20054;-79
2023/05/15 08:08:33;;;;;;;15.18;6.12;;;;;;;;;;4211745;34;20061;-78
2023/05/15 08:10:59;;;;;;;10.25;6.30;;;;;;;;;;4212366;34;20068;-79
2023/05/15 08:13:25;;;;;;;7.72;5.65;;;;;;;;;;4208844;34;20063;-80
2023/05/15 08:15:51;;;;;;;10.85;5.93;;;;;;;;;;4200069;34;20062;-78
2023/05/15 08:18:24;;;;;;;8.45;5.90;;;;;;;;;;4209657;34;20445;-78
2023/05/15 08:20:51;;;;;;;7.62;5.62;;;;;;;;;;4207475;34;20065;-78
2023/05/15 08:23:17;;;;;;;8.45;5.37;;;;;;;;;;4208021;34;20053;-78
2023/05/15 08:25:43;;;;;;;7.30;5.00;;;;;;;;;;4194704;34;20059;-78
2023/05/15 08:28:09;;;;;;;9.02;4.28;;;;;;;;;;4193844;34;20376;-77
2023/05/15 08:30:36;;;;;;;7.45;5.55;;;;;;;;;;4208881;34;20101;-78
2023/05/15 08:33:02;;;;;;;8.63;5.90;;;;;;;;;;4211864;34;20561;-77
2023/05/15 08:35:28;;;;;;;7.15;5.45;;;;;;;;;;4231513;33;20089;-77
2023/05/15 08:37:54;;;;;;;11.20;5.75;;;;;;;;;;4240207;33;20067;-78
2023/05/15 08:40:21;;;;;;;8.63;6.00;;;;;;;;;;4251785;33;20060;-77
2023/05/15 08:42:48;;;;;;;9.90;5.78;;;;;;;;;;4255848;33;20421;-78
2023/05/15 08:45:15;;;;;;;9.60;6.80;;;;;;;;;;4222723;33;20412;-77
2023/05/15 08:47:47;;;;;;;;;;;;;;;;;;4222926;33;20126;-79
2023/05/15 08:50:16;;;;;;;7.25;5.97;;;;;;;;;;4221991;33;19960;-78
2023/05/15 08:52:45;;;;;;;8.52;6.32;;;;;;;;;;4232979;33;20064;-78
2023/05/15 08:55:15;;;;;;;8.77;7.60;;;;;;;;;;4235743;33;20059;-78
2023/05/15 08:57:42;;;;;;;8.27;6.93;;;;;;;;;;4235782;33;20412;-77
2023/05/15 09:00:13;;;;;;;12.05;8.38;;;;;;;;;;4235607;33;20043;-77
2023/05/15 09:02:39;;;;;;;10.77;7.85;;;;;;;;;;4224375;33;20050;-78
2023/05/15 09:05:07;;;;;;;14.82;8.25;;;;;;;;;;4220465;33;20081;-77
2023/05/15 09:07:34;;;;;;;10.63;8.13;;;;;;;;;;4237021;33;20155;-79
2023/05/15 09:10:02;;;;;;;17.33;8.95;;;;;;;;;;4230921;33;20076;-78
2023/05/15 09:12:31;;;;;;;10.10;7.93;;;;;;;;;;4234193;33;20112;-79
2023/05/15 09:15:10;;;;;;;14.45;8.18;;;;;;;;;;4223632;33;20362;-79
2023/05/15 09:17:37;;;;;;;10.98;8.85;;;;;;;;;;4278705;33;20351;-79
2023/05/15 09:20:07;;;;;;;11.52;8.45;;;;;;;;;;4263094;33;20049;-77
2023/05/15 09:22:33;;;;;;;13.77;8.52;;;;;;;;;;4256912;33;20056;-79
2023/05/15 09:25:02;;;;;;;11.63;8.55;;;;;;;;;;4250353;33;20392;-80
2023/05/15 09:27:28;;;;;;;12.73;8.15;;;;;;;;;;4249385;33;20074;-83
2023/05/15 09:29:56;;;;;;;9.40;7.82;;;;;;;;;;4255794;33;20432;-77
2023/05/15 09:32:25;;;;;;;13.15;8.82;;;;;;;;;;4256134;33;20030;-77
2023/05/15 09:34:52;;;;;;;12.65;8.20;;;;;;;;;;4253760;33;20060;-78
2023/05/15 09:37:28;;;;;;;19.15;8.88;;;;;;;;;;4262923;33;20231;-78
2023/05/15 09:40:05;;;;;;;10.95;8.35;;;;;;;;;;4254775;33;20533;-78
2023/05/15 09:42:33;;;;;;;16.25;8.18;;;;;;;;;;4266851;33;20355;-75
2023/05/15 09:45:00;;;;;;;10.40;8.15;;;;;;;;;;4239410;33;20038;-75
2023/05/15 09:47:26;;;;;;;13.60;8.85;;;;;;;;;;4240265;33;20031;-76
2023/05/15 09:49:52;;;;;;;20.77;8.73;;;;;;;;;;4241769;33;20066;-79
2023/05/15 09:52:19;;;;;;;11.25;7.87;;;;;;;;;;4235278;33;20799;-77
2023/05/15 09:54:45;;;;;;;13.50;9.13;;;;;;;;;;4251061;33;20045;-75
2023/05/15 09:57:13;;;;;;;13.82;7.87;;;;;;;;;;4260092;33;20019;-75
2023/05/15 09:59:42;;;;;;;10.13;8.27;;;;;;;;;;4270756;33;20042;-74
2023/05/15 10:02:12;;;;;;;10.95;8.13;;;;;;;;;;4270273;33;20472;-75
2023/05/15 10:04:40;;;;;;;13.80;8.60;;;;;;;;;;4270981;33;20067;-74
2023/05/15 10:07:06;;;;;;;10.60;8.98;;;;;;;;;;4263076;33;20037;-75
2023/05/15 10:09:33;;;;;;;10.80;7.85;;;;;;;;;;4251028;33;20049;-74
2023/05/15 10:11:59;;;;;;;15.55;8.25;;;;;;;;;;4251126;33;20042;-75
2023/05/15 10:14:27;;;;;;;12.18;7.75;;;;;;;;;;4257737;33;20064;-75
2023/05/15 10:16:54;;;;;;;14.18;8.07;;;;;;;;;;4252014;33;20030;-75
2023/05/15 10:19:25;;;;;;;12.32;8.20;;;;;;;;;;4255593;33;20064;-76
2023/05/15 10:21:52;;;;;;;14.13;8.45;;;;;;;;;;4260796;33;20359;-77
2023/05/15 10:24:19;;;;;;;13.50;7.93;;;;;;;;;;4252659;33;20110;-76
2023/05/15 10:26:46;;;;;;;9.77;8.55;;;;;;;;;;4239495;33;20042;-76
2023/05/15 10:29:13;;;;;;;11.25;7.75;;;;;;;;;;4244913;33;20068;-76
2023/05/15 10:31:40;;;;;;;12.15;7.57;;;;;;;;;;4242961;33;20470;-75
2023/05/15 10:34:07;;;;;;;11.90;7.43;;;;;;;;;;4242087;33;20039;-78
2023/05/15 10:36:34;;;;;;;10.77;7.72;;;;;;;;;;4223376;33;20046;-76
2023/05/15 10:39:02;;;;;;;13.35;8.40;;;;;;;;;;4243424;33;20114;-75
2023/05/15 10:41:29;;;;;;;10.25;6.72;;;;;;;;;;4239418;33;20073;-76
2023/05/15 10:43:59;;;;;;;9.73;7.80;;;;;;;;;;4225448;33;20043;-76
2023/05/15 10:46:26;;;;;;;15.02;7.55;;;;;;;;;;4213766;33;20118;-79
2023/05/15 10:48:53;;;;;;;7.78;6.93;;;;;;;;;;4225299;33;20415;-75
2023/05/15 10:51:26;;;;;;;9.18;7.90;;;;;;;;;;4223723;33;20054;-76
2023/05/15 10:53:54;;;;;;;13.43;8.43;;;;;;;;;;4215892;33;20047;-76
2023/05/15 10:56:20;;;;;;;8.30;7.47;;;;;;;;;;4220737;33;20055;-75
2023/05/15 10:58:47;;;;;;;8.95;7.12;;;;;;;;;;4224799;33;20092;-75
2023/05/15 11:01:30;;;;;;;12.43;7.97;;;;;;;;;;4368641;28;21178;-75
2023/05/15 11:04:06;;;;;;;10.55;6.93;;;;;;;;;;4202218;34;20073;-76
2023/05/15 11:06:33;;;;;;;8.60;7.72;;;;;;;;;;4203115;34;20112;-78
2023/05/15 11:09:18;;;;;;;8.82;7.18;;;;;;;;;;4202499;34;20043;-76
2023/05/15 11:11:51;;;;;;;11.57;6.87;;;;;;;;;;4205082;34;20051;-76
2023/05/15 11:14:21;;;;;;;10.25;7.00;;;;;;;;;;4207681;34;20094;-77
2023/05/15 11:16:54;;;;;;;8.27;6.78;;;;;;;;;;4213594;33;20129;-76
2023/05/15 11:19:32;;;;;;;9.68;7.00;;;;;;;;;;4227603;33;20039;-76
2023/05/15 11:21:59;;;;;;;15.27;7.40;;;;;;;;;;4221028;33;20055;-78
2023/05/15 11:24:30;;;;;;;6.95;6.12;;;;;;;;;;4227000;33;20062;-77
2023/05/15 11:27:00;;;;;;;7.75;6.20;;;;;;;;;;4238395;33;20412;-76
2023/05/15 11:29:27;;;;;;;7.35;6.32;;;;;;;;;;4261106;33;20070;-77
2023/05/15 11:31:53;;;;;;;7.30;6.20;;;;;;;;;;4258330;33;20049;-77
2023/05/15 11:34:48;;;;;;;10.00;7.43;;;;;;;;;;4260946;33;20379;-77
2023/05/15 11:37:18;;;;;;;7.85;6.60;;;;;;;;;;4230599;33;20082;-77
2023/05/15 11:39:45;;;;;;;10.80;6.85;;;;;;;;;;4227432;33;20066;-75
2023/05/15 11:42:11;;;;;;;8.85;6.75;;;;;;;;;;4225745;33;20458;-76
2023/05/15 11:44:38;;;;;;;10.85;6.82;;;;;;;;;;4220212;33;20841;-75
2023/05/15 11:47:09;;;;;;;7.62;6.55;;;;;;;;;;4206902;34;20103;-77
2023/05/15 11:49:37;;;;;;;7.33;6.00;;;;;;;;;;4207271;34;20047;-77
2023/05/15 11:52:05;;;;;;;5.47;4.97;;;;;;;;;;4194054;34;20165;-79
2023/05/15 11:54:32;;;;;;;10.38;5.32;;;;;;;;;;4179647;34;20059;-76
2023/05/15 11:56:58;;;;;;;4.85;4.45;;;;;;;;;;4180613;34;20124;-76
2023/05/15 11:59:32;;;;;;;5.22;4.50;;;;;;;;;;4180963;34;20044;-77
2023/05/15 12:02:04;;;;;;;5.72;5.22;;;;;;;;;;4189986;34;20662;-82
2023/05/15 12:04:37;;;;;;;5.60;4.55;;;;;;;;;;4187395;34;20132;-75
2023/05/15 12:07:04;;;;;;;7.20;4.80;;;;;;;;;;4175283;34;20390;-76
2023/05/15 12:09:31;;;;;;;7.00;5.28;;;;;;;;;;4178597;34;20047;-78
2023/05/15 12:11:57;;;;;;;4.75;4.32;;;;;;;;;;4204878;34;20074;-79
2023/05/15 12:14:27;;;;;;;9.82;4.78;;;;;;;;;;4238657;33;20563;-75
2023/05/15 12:17:05;;;;;;;5.32;4.82;;;;;;;;;;4249602;33;20030;-76
2023/05/15 12:19:33;;;;;;;6.10;5.50;;;;;;;;;;4268849;33;20050;-79
2023/05/15 12:21:59;;;;;;;5.25;4.85;;;;;;;;;;4242825;33;20027;-77
2023/05/15 12:24:25;;;;;;;4.87;4.40;;;;;;;;;;4272316;33;20399;-78
2023/05/15 12:26:52;;;;;;;6.25;5.15;;;;;;;;;;4264653;33;20054;-79
2023/05/15 12:29:19;;;;;;;6.12;5.00;;;;;;;;;;4264052;33;20022;-79
2023/05/15 12:31:46;;;;;;;6.37;5.78;;;;;;;;;;4249666;33;20060;-81
2023/05/15 12:34:14;;;;;;;6.28;5.68;;;;;;;;;;4249795;33;20323;-77
2023/05/15 12:36:42;;;;;;;5.47;5.07;;;;;;;;;;4245282;33;20200;-78
2023/05/15 12:39:16;;;;;;;7.55;5.85;;;;;;;;;;4260404;33;20035;-79
2023/05/15 12:41:43;;;;;;;9.35;5.18;;;;;;;;;;4225917;33;20051;-79
2023/05/15 12:44:16;;;;;;;5.70;5.20;;;;;;;;;;4223431;33;20980;-78
2023/05/15 12:46:42;;;;;;;6.10;5.60;;;;;;;;;;4228857;33;20035;-79
2023/05/15 12:49:09;;;;;;;6.28;5.70;;;;;;;;;;4228566;33;20066;-78
2023/05/15 12:51:40;;;;;;;5.55;5.03;;;;;;;;;;4228396;33;20046;-78
2023/05/15 12:54:15;;;;;;;6.95;5.20;;;;;;;;;;4245207;33;20054;-77
2023/05/15 12:56:41;;;;;;;6.85;6.12;;;;;;;;;;4248244;33;20471;-77
2023/05/15 12:59:14;;;;;;;6.82;5.15;;;;;;;;;;4248036;33;20054;-77
2023/05/15 13:01:41;;;;;;;5.57;4.87;;;;;;;;;;4256597;33;20178;-79
2023/05/15 13:04:08;;;;;;;5.85;5.22;;;;;;;;;;4264836;33;20092;-77
2023/05/15 13:06:34;;;;;;;14.23;5.80;;;;;;;;;;4262976;33;20136;-78
2023/05/15 13:09:01;;;;;;;5.72;5.22;;;;;;;;;;4249833;33;20057;-76
2023/05/15 13:11:33;;;;;;;6.05;5.20;;;;;;;;;;4278044;33;20072;-77
2023/05/15 13:13:59;;;;;;;5.95;5.18;;;;;;;;;;4260211;33;20046;-77
2023/05/15 13:16:28;;;;;;;5.40;4.90;;;;;;;;;;4274937;33;20063;-77
2023/05/15 13:18:56;;;;;;;11.25;5.90;;;;;;;;;;4287436;33;20078;-78
2023/05/15 13:21:22;;;;;;;6.60;6.00;;;;;;;;;;4288311;33;20283;-79
2023/05/15 13:23:49;;;;;;;9.43;4.95;;;;;;;;;;4368853;28;20065;-80
2023/05/15 13:26:16;;;;;;;6.10;5.25;;;;;;;;;;4273687;33;20071;-79
2023/05/15 13:28:42;;;;;;;10.43;6.03;;;;;;;;;;4273837;33;20142;-80
2023/05/15 13:31:08;;;;;;;5.65;5.15;;;;;;;;;;4271323;33;20058;-77
2023/05/15 13:33:34;;;;;;;5.95;4.78;;;;;;;;;;4272615;33;20486;-75
2023/05/15 13:36:01;;;;;;;5.80;5.30;;;;;;;;;;4276031;33;20071;-79
2023/05/15 13:38:27;;;;;;;5.95;5.35;;;;;;;;;;4271271;33;20058;-79
2023/05/15 13:40:53;;;;;;;5.45;4.57;;;;;;;;;;4273222;33;20088;-78
2023/05/15 13:43:19;;;;;;;9.32;5.70;;;;;;;;;;4275961;33;20506;-79
2023/05/15 13:45:45;;;;;;;11.93;5.47;;;;;;;;;;4263763;33;20128;-81
2023/05/15 13:48:12;;;;;;;7.20;6.20;;;;;;;;;;4266594;33;20110;-79
2023/05/15 13:50:38;;;;;;;14.00;5.78;;;;;;;;;;4268430;33;20060;-78
2023/05/15 13:53:05;;;;;;;7.60;5.53;;;;;;;;;;4262325;33;20474;-78
2023/05/15 13:55:31;;;;;;;4.65;4.22;;;;;;;;;;4268105;33;20046;-79
2023/05/15 13:57:57;;;;;;;5.35;4.37;;;;;;;;;;4273054;33;20164;-80
2023/05/15 14:00:23;;;;;;;10.80;4.47;;;;;;;;;;4275341;33;20961;-80
2023/05/15 14:02:50;;;;;;;6.80;3.60;;;;;;;;;;4275036;33;20071;-81
2023/05/15 14:05:16;;;;;;;9.23;3.80;;;;;;;;;;4272544;33;20061;-79
2023/05/15 14:07:42;;;;;;;4.12;3.72;;;;;;;;;;4276482;33;20172;-80
2023/05/15 14:10:09;;;;;;;3.78;3.12;;;;;;;;;;4274338;33;20042;-76
2023/05/15 14:12:36;;;;;;;4.97;3.12;;;;;;;;;;4248575;33;20070;-78
2023/05/15 14:15:02;;;;;;;4.50;2.80;;;;;;;;;;4249469;33;20042;-80
2023/05/15 14:17:28;;;;;;;2.58;2.37;;;;;;;;;;4249383;33;20385;-77
2023/05/15 14:19:54;;;;;;;5.18;3.33;;;;;;;;;;4255110;33;20101;-78
2023/05/15 14:22:23;;;;;;;17.12;3.45;;;;;;;;;;4253491;33;20053;-74
2023/05/15 14:24:50;;;;;;;3.78;3.47;;;;;;;;;;4250938;33;20083;-77
2023/05/15 14:27:16;;;;;;;4.47;2.67;;;;;;;;;;4250877;33;20067;-80
2023/05/15 14:29:43;;;;;;;5.00;3.33;;;;;;;;;;4256477;33;20101;-82
2023/05/15 14:32:10;;;;;;;2.80;2.60;;;;;;;;;;4267090;33;20057;-81
2023/05/15 14:34:36;;;;;;;3.47;2.83;;;;;;;;;;4262068;33;20046;-80
2023/05/15 14:37:02;;;;;;;3.28;2.42;;;;;;;;;;4263266;33;20049;-78
2023/05/15 14:39:28;;;;;;;2.70;2.50;;;;;;;;;;4261317;33;20080;-77
2023/05/15 14:41:55;;;;;;;6.45;3.30;;;;;;;;;;4246890;33;20076;-76
2023/05/15 14:44:21;;;;;;;6.37;3.62;;;;;;;;;;4256811;33;20060;-74
2023/05/15 14:47:03;;;;;;;3.35;2.62;;;;;;;;;;4252608;33;20049;-82
2023/05/15 14:49:29;;;;;;;3.55;2.70;;;;;;;;;;4253126;33;20075;-86
2023/05/15 14:51:56;;;;;;;9.18;2.90;;;;;;;;;;4218310;33;20166;-79
2023/05/15 14:54:23;;;;;;;2.70;2.50;;;;;;;;;;4218004;33;20051;-74
2023/05/15 14:56:50;;;;;;;3.55;2.62;;;;;;;;;;4220200;33;20170;-81
2023/05/15 14:59:17;;;;;;;4.20;3.80;;;;;;;;;;4228073;33;20054;-77
2023/05/15 15:01:45;;;;;;;2.55;2.37;;;;;;;;;;4220556;33;20047;-80
2023/05/15 15:04:11;;;;;;;5.65;3.70;;;;;;;;;;4220388;33;20393;-74
2023/05/15 15:06:40;;;;;;;3.35;2.33;;;;;;;;;;4222856;34;20051;-82
2023/05/15 15:09:06;;;;;;;8.73;2.90;;;;;;;;;;4239107;33;20609;-82
2023/05/15 15:11:32;;;;;;;3.35;2.80;;;;;;;;;;4249423;33;20074;-83
2023/05/15 15:13:59;;;;;;;2.55;2.33;;;;;;;;;;4260368;33;20059;-79
2023/05/15 15:16:25;;;;;;;2.97;2.60;;;;;;;;;;4262908;33;20062;-78
2023/05/15 15:18:52;;;;;;;2.72;2.53;;;;;;;;;;4264536;33;20828;-76
2023/05/15 15:21:19;;;;;;;4.55;2.50;;;;;;;;;;4268372;33;20064;-76
2023/05/15 15:23:47;;;;;;;2.83;2.62;;;;;;;;;;4263208;33;20419;-76
2023/05/15 15:26:13;;;;;;;2.33;2.20;;;;;;;;;;4265681;33;20431;-73
2023/05/15 15:28:40;;;;;;;4.28;2.58;;;;;;;;;;4265651;33;20041;-80
2023/05/15 15:31:08;;;;;;;7.65;2.78;;;;;;;;;;4264458;33;20057;-80
2023/05/15 15:33:34;;;;;;;6.40;2.42;;;;;;;;;;4266945;33;20105;-77
2023/05/15 15:36:01;;;;;;;2.15;2.05;;;;;;;;;;4269152;33;20045;-80
2023/05/15 15:38:29;;;;;;;2.62;2.08;;;;;;;;;;4269010;33;20140;-74
2023/05/15 15:40:55;;;;;;;2.80;2.50;;;;;;;;;;4268586;33;20053;-77
2023/05/15 15:43:22;;;;;;;2.45;2.33;;;;;;;;;;4266060;33;20454;-79
2023/05/15 15:45:48;;;;;;;2.67;2.50;;;;;;;;;;4259466;33;20093;-79
2023/05/15 15:48:14;;;;;;;2.70;2.35;;;;;;;;;;4267090;33;20037;-80
2023/05/15 15:50:41;;;;;;;3.65;2.78;;;;;;;;;;4267903;33;20132;-74
2023/05/15 15:53:07;;;;;;;5.25;3.37;;;;;;;;;;4258121;33;20046;-78
2023/05/15 15:55:34;;;;;;;6.72;4.95;;;;;;;;;;4261880;33;20513;-77
2023/05/15 15:58:01;;;;;;;3.25;2.95;;;;;;;;;;4257947;33;20549;-75
2023/05/15 16:00:28;;;;;;;3.12;2.83;;;;;;;;;;4243302;33;20124;-76
2023/05/15 16:02:55;;;;;;;5.97;3.80;;;;;;;;;;4242472;33;20051;-75
2023/05/15 16:05:22;;;;;;;8.02;3.00;;;;;;;;;;4242477;33;20124;-75
2023/05/15 16:07:50;;;;;;;7.30;3.28;;;;;;;;;;4221826;33;20042;-76
2023/05/15 16:10:19;;;;;;;5.15;3.83;;;;;;;;;;4221443;33;20494;-75
2023/05/15 16:12:46;;;;;;;5.25;3.60;;;;;;;;;;4221843;33;20069;-75
2023/05/15 16:15:16;;;;;;;10.43;4.72;;;;;;;;;;4204110;34;20114;-76
2023/05/15 16:17:43;;;;;;;4.37;3.45;;;;;;;;;;4206576;34;20051;-76
2023/05/15 16:20:10;;;;;;;4.10;3.70;;;;;;;;;;4196514;34;20106;-76
2023/05/15 16:22:36;;;;;;;10.82;3.67;;;;;;;;;;4198158;34;20230;-76
2023/05/15 16:25:03;;;;;;;5.62;4.65;;;;;;;;;;4194997;34;20068;-73
2023/05/15 16:27:29;;;;;;;5.53;4.97;;;;;;;;;;4203416;34;20401;-76
2023/05/15 16:29:56;;;;;;;8.18;4.35;;;;;;;;;;4222478;33;20073;-76
2023/05/15 16:32:22;;;;;;;10.77;5.40;;;;;;;;;;4212197;34;20080;-75
2023/05/15 16:34:49;;;;;;;5.90;4.60;;;;;;;;;;4208908;34;20536;-75
2023/05/15 16:37:15;;;;;;;7.22;4.90;;;;;;;;;;4210009;34;20525;-77
2023/05/15 16:39:41;;;;;;;6.05;4.20;;;;;;;;;;4205907;34;20059;-76
2023/05/15 16:42:07;;;;;;;5.80;4.30;;;;;;;;;;4197054;33;20078;-75